Terminal Aerodrome Forecast
Issued by NWS

Home | Current Version | Previous Version | Graphics & Text | Print | Product List | Glossary On
Versions: 1 2 3 4 5 6 7 8 9 10 11 12 13 14 15 16 17 18 19 20 21 22 23 24 25 26
000
FTUS45 KGGW 031133
TAFGDV
TAF
KGDV 031133Z 0312/0412 20007KT P6SM BKN100
     FM031400 20008KT P6SM VCSH OVC035
     FM031600 22009KT P6SM OVC045
     FM032000 25013KT P6SM BKN040
     FM032300 27012KT P6SM BKN040
     FM040500 27009KT P6SM SCT060=

USA.gov is the U.S. government's official web portal to all federal, state and local government web resources and services.